createdAt,value
2022-11-18T00:01:19.776Z,66.74
2022-11-18T00:03:48.506Z,66.59
2022-11-18T00:06:18.994Z,66.81
2022-11-18T00:08:47.121Z,66.76
2022-11-18T00:11:33.177Z,66.85
2022-11-18T00:14:16.770Z,66.82
2022-11-18T00:16:45.805Z,66.96
2022-11-18T00:19:14.091Z,66.77
2022-11-18T00:21:42.018Z,66.77
2022-11-18T00:24:10.088Z,66.93
2022-11-18T00:26:37.897Z,66.75
2022-11-18T00:29:05.612Z,66.73
2022-11-18T00:31:33.374Z,66.82
2022-11-18T00:34:00.978Z,66.77
2022-11-18T00:36:29.665Z,66.65
2022-11-18T00:38:57.342Z,66.78
2022-11-18T00:41:25.006Z,66.71
2022-11-18T00:43:52.599Z,66.87
2022-11-18T00:46:20.224Z,66.78
2022-11-18T00:48:47.829Z,66.68
2022-11-18T00:51:17.751Z,66.82
2022-11-18T00:53:45.754Z,66.73
2022-11-18T00:56:13.365Z,66.66
2022-11-18T00:58:40.967Z,66.69
2022-11-18T01:01:09.583Z,66.69
2022-11-18T01:03:37.463Z,66.73
2022-11-18T01:06:05.105Z,66.69
2022-11-18T01:08:32.719Z,66.68
2022-11-18T01:11:20.722Z,66.81
2022-11-18T01:13:52.982Z,66.67
2022-11-18T01:16:26.809Z,66.62
2022-11-18T01:18:54.422Z,66.68
2022-11-18T01:21:22.080Z,66.73
2022-11-18T01:23:49.706Z,66.73
2022-11-18T01:26:18.179Z,66.60
2022-11-18T01:28:46.221Z,66.66
2022-11-18T01:31:16.848Z,66.71
2022-11-18T01:33:45.524Z,66.62
2022-11-18T01:36:22.218Z,66.51
2022-11-18T01:38:50.549Z,66.48
2022-11-18T01:41:21.102Z,66.38
2022-11-18T01:44:06.211Z,66.56
2022-11-18T01:46:34.466Z,66.56
2022-11-18T01:49:10.731Z,66.35
2022-11-18T01:51:58.651Z,66.45
2022-11-18T01:54:37.639Z,66.49
2022-11-18T01:57:12.283Z,66.46
2022-11-18T01:59:42.862Z,66.58
2022-11-18T02:02:12.565Z,66.59
2022-11-18T02:04:44.473Z,66.59
2022-11-18T02:07:13.616Z,66.52
2022-11-18T02:09:42.327Z,66.55
2022-11-18T02:12:10.260Z,66.28
2022-11-18T02:14:45.774Z,66.29
2022-11-18T02:17:29.385Z,66.31
2022-11-18T02:20:25.619Z,66.40
2022-11-18T02:23:21.080Z,66.41
2022-11-18T02:26:04.702Z,66.16
2022-11-18T02:28:35.252Z,66.13
2022-11-18T02:31:11.846Z,66.23
2022-11-18T02:34:21.423Z,66.26
2022-11-18T02:37:00.795Z,66.24
2022-11-18T02:39:35.121Z,66.20
2022-11-18T02:42:06.958Z,66.35
2022-11-18T02:44:38.321Z,66.26
2022-11-18T02:47:10.907Z,66.30
2022-11-18T02:49:47.160Z,66.14
2022-11-18T02:52:16.837Z,66.19
2022-11-18T02:54:48.038Z,66.24
2022-11-18T02:57:16.571Z,66.12
2022-11-18T02:59:44.218Z,66.04
2022-11-18T03:02:19.486Z,65.97
2022-11-18T03:04:49.010Z,66.13
2022-11-18T03:07:34.619Z,66.10
2022-11-18T03:10:03.932Z,66.12
2022-11-18T03:13:03.525Z,66.01
2022-11-18T03:15:34.283Z,66.01
2022-11-18T03:18:14.270Z,66.01
2022-11-18T03:20:48.151Z,65.96
2022-11-18T03:23:38.480Z,66.04
2022-11-18T03:26:11.860Z,66.06
2022-11-18T03:29:07.484Z,66.08
2022-11-18T03:32:02.697Z,66.09
2022-11-18T03:34:35.295Z,66.11
2022-11-18T03:37:10.356Z,66.07
2022-11-18T03:39:42.746Z,66.00
2022-11-18T03:42:21.817Z,66.11
2022-11-18T03:44:54.615Z,66.06
2022-11-18T03:47:48.762Z,66.10
2022-11-18T03:50:22.323Z,66.07
2022-11-18T03:52:53.342Z,66.02
2022-11-18T03:55:25.809Z,66.09
2022-11-18T03:58:09.312Z,66.07
2022-11-18T04:00:42.485Z,65.91
2022-11-18T04:03:11.503Z,65.96
2022-11-18T04:05:42.573Z,66.04
2022-11-18T04:08:24.971Z,65.91
2022-11-18T04:11:32.451Z,65.99
2022-11-18T04:14:01.448Z,65.98
2022-11-18T04:16:28.964Z,65.94
2022-11-18T04:18:57.651Z,65.99
2022-11-18T04:21:27.723Z,65.98
2022-11-18T04:23:55.251Z,66.01
2022-11-18T04:26:22.754Z,65.95
2022-11-18T04:28:50.297Z,66.07
2022-11-18T04:31:17.817Z,65.98
2022-11-18T04:33:45.439Z,66.02
2022-11-18T04:36:13.017Z,66.14
2022-11-18T04:38:40.640Z,66.12
2022-11-18T04:41:08.225Z,65.97
2022-11-18T04:43:35.747Z,66.03
2022-11-18T04:46:03.331Z,66.09
2022-11-18T04:48:30.893Z,66.02
2022-11-18T04:50:58.696Z,66.05
2022-11-18T04:53:26.253Z,65.94
2022-11-18T04:55:53.771Z,66.05
2022-11-18T04:58:21.293Z,66.07
2022-11-18T05:00:51.135Z,65.99
2022-11-18T05:03:18.887Z,66.02
2022-11-18T05:05:46.442Z,65.91
2022-11-18T05:08:13.978Z,65.99
2022-11-18T05:10:41.527Z,65.95
2022-11-18T05:13:09.063Z,66.02
2022-11-18T05:15:36.584Z,66.10
2022-11-18T05:18:04.161Z,66.12
2022-11-18T05:20:31.779Z,66.13
2022-11-18T05:22:59.385Z,66.22
2022-11-18T05:25:26.890Z,66.20
2022-11-18T05:27:54.389Z,66.26
2022-11-18T05:30:22.259Z,66.30
2022-11-18T05:32:49.775Z,66.26
2022-11-18T05:35:17.294Z,66.23
2022-11-18T05:37:44.791Z,66.30
2022-11-18T05:40:12.436Z,66.18
2022-11-18T05:42:55.976Z,66.27
2022-11-18T05:45:23.548Z,66.18
2022-11-18T05:48:07.051Z,66.19
2022-11-18T05:50:36.796Z,66.28
2022-11-18T05:53:05.145Z,66.35
2022-11-18T05:55:42.237Z,66.27
2022-11-18T05:58:09.763Z,66.29
2022-11-18T06:00:37.457Z,66.35
2022-11-18T06:03:12.915Z,66.34
2022-11-18T06:05:40.577Z,66.44
2022-11-18T06:08:10.867Z,66.34
2022-11-18T06:10:42.011Z,66.30
2022-11-18T06:13:15.898Z,66.23
2022-11-18T06:15:44.713Z,66.36
2022-11-18T06:18:21.816Z,66.50
2022-11-18T06:20:52.618Z,66.52
2022-11-18T06:23:20.473Z,66.46
2022-11-18T06:25:48.488Z,66.33
2022-11-18T06:28:17.451Z,66.38
2022-11-18T06:30:45.337Z,66.51
2022-11-18T06:33:12.847Z,66.49
2022-11-18T06:35:42.781Z,66.45
2022-11-18T06:38:10.632Z,66.40
2022-11-18T06:40:38.323Z,66.46
2022-11-18T06:43:25.753Z,66.58
2022-11-18T06:46:09.997Z,66.53
2022-11-18T06:48:37.681Z,66.65
2022-11-18T06:51:06.251Z,66.54
2022-11-18T06:53:34.834Z,66.52
2022-11-18T06:56:10.998Z,66.61
2022-11-18T06:58:39.248Z,66.56
2022-11-18T07:01:16.103Z,66.75
2022-11-18T07:03:45.498Z,66.67
2022-11-18T07:06:18.228Z,66.66
2022-11-18T07:08:46.233Z,66.70
2022-11-18T07:11:16.119Z,66.62
2022-11-18T07:13:45.153Z,66.53
2022-11-18T07:16:16.366Z,66.62
2022-11-18T07:18:45.771Z,66.60
2022-11-18T07:21:16.702Z,66.60
2022-11-18T07:23:44.764Z,66.57
2022-11-18T07:26:12.458Z,66.46
2022-11-18T07:28:40.851Z,66.51
2022-11-18T07:31:17.056Z,66.60
2022-11-18T07:33:45.887Z,66.58
2022-11-18T07:36:20.041Z,66.69
2022-11-18T07:38:48.437Z,66.72
2022-11-18T07:41:17.506Z,66.63
2022-11-18T07:43:57.577Z,66.52
2022-11-18T07:46:32.821Z,66.60
2022-11-18T07:49:03.246Z,66.56
2022-11-18T07:51:34.781Z,66.78
2022-11-18T07:54:09.867Z,66.67
2022-11-18T07:56:38.216Z,66.41
2022-11-18T07:59:06.375Z,66.33
2022-11-18T08:01:34.050Z,66.39
2022-11-18T08:04:10.722Z,66.53
2022-11-18T08:06:39.359Z,66.53
2022-11-18T08:09:07.828Z,66.36
2022-11-18T08:11:40.710Z,66.37
2022-11-18T08:14:08.390Z,66.47
2022-11-18T08:16:35.945Z,66.21
2022-11-18T08:19:03.795Z,66.23
2022-11-18T08:21:32.398Z,66.27
2022-11-18T08:24:00.242Z,66.40
2022-11-18T08:26:27.868Z,66.14
2022-11-18T08:28:55.858Z,66.29
2022-11-18T08:31:29.200Z,66.11
2022-11-18T08:34:02.721Z,66.03
2022-11-18T08:36:33.662Z,66.06
2022-11-18T08:39:03.416Z,66.05
2022-11-18T08:41:38.101Z,66.14
2022-11-18T08:44:07.255Z,66.30
2022-11-18T08:46:35.182Z,66.36
2022-11-18T08:49:03.677Z,66.35
2022-11-18T08:51:38.223Z,66.23
2022-11-18T08:54:06.113Z,66.35
2022-11-18T08:56:33.779Z,66.14
2022-11-18T08:59:01.443Z,66.12
2022-11-18T09:01:29.275Z,66.08
2022-11-18T09:03:57.866Z,65.96
2022-11-18T09:06:26.410Z,65.78
2022-11-18T09:08:54.824Z,65.91
2022-11-18T09:11:25.547Z,65.69
2022-11-18T09:16:43.554Z,65.66
2022-11-18T09:21:58.767Z,65.75
2022-11-18T09:24:26.468Z,65.75
2022-11-18T09:26:54.254Z,65.67
2022-11-18T09:29:25.887Z,65.64
2022-11-18T09:31:54.275Z,65.71
2022-11-18T09:34:22.964Z,65.71
2022-11-18T09:36:51.076Z,65.82
2022-11-18T09:39:21.122Z,65.88
2022-11-18T09:42:02.125Z,65.63
2022-11-18T09:44:46.032Z,65.53
2022-11-18T09:47:31.876Z,65.65
2022-11-18T09:50:47.310Z,65.63
2022-11-18T09:53:22.267Z,65.57
2022-11-18T09:55:52.091Z,65.61
2022-11-18T09:58:33.860Z,65.48
2022-11-18T10:01:02.539Z,65.39
2022-11-18T10:03:33.166Z,65.14
2022-11-18T10:06:10.551Z,65.18
2022-11-18T10:08:41.124Z,65.20
2022-11-18T10:11:18.689Z,65.14
2022-11-18T10:14:18.483Z,64.96
2022-11-18T10:16:58.190Z,65.15
2022-11-18T10:19:42.032Z,64.87
2022-11-18T10:22:28.629Z,64.85
2022-11-18T10:24:57.724Z,65.22
2022-11-18T10:27:34.693Z,65.05
2022-11-18T10:30:02.744Z,65.10
2022-11-18T10:32:30.240Z,65.07
2022-11-18T10:34:59.013Z,65.02
2022-11-18T10:38:07.722Z,64.86
2022-11-18T10:40:40.373Z,64.80
2022-11-18T10:43:10.755Z,64.82
2022-11-18T10:45:38.561Z,64.86
2022-11-18T10:48:17.986Z,64.87
2022-11-18T10:50:55.440Z,64.77
2022-11-18T10:53:44.038Z,64.77
2022-11-18T10:56:15.838Z,64.70
2022-11-18T10:58:48.394Z,64.82
2022-11-18T11:01:15.924Z,64.83
2022-11-18T11:04:12.261Z,64.83
2022-11-18T11:06:39.917Z,64.72
2022-11-18T11:09:15.118Z,64.67
2022-11-18T11:11:56.923Z,64.62
2022-11-18T11:14:33.089Z,64.64
2022-11-18T11:17:27.118Z,64.55
2022-11-18T11:20:13.747Z,64.47
2022-11-18T11:22:42.119Z,64.38
2022-11-18T11:25:18.908Z,64.14
2022-11-18T11:30:49.115Z,64.42
2022-11-18T11:33:31.256Z,64.31
2022-11-18T11:36:09.597Z,64.48
2022-11-18T11:39:01.322Z,64.34
2022-11-18T11:41:43.577Z,64.49
2022-11-18T11:44:33.194Z,64.42
2022-11-18T11:47:35.846Z,64.36
2022-11-18T11:50:14.224Z,64.34
2022-11-18T11:53:13.737Z,64.41
2022-11-18T11:56:22.784Z,64.44
2022-11-18T11:59:13.267Z,64.48
2022-11-18T12:01:54.858Z,64.66
2022-11-18T12:04:32.814Z,64.52
2022-11-18T12:07:02.081Z,64.39
2022-11-18T12:09:39.891Z,64.65
2022-11-18T12:12:40.779Z,64.59
2022-11-18T12:15:35.262Z,64.76
2022-11-18T12:18:13.446Z,64.54
2022-11-18T12:20:47.351Z,64.37
2022-11-18T12:23:18.835Z,64.56
2022-11-18T12:25:46.307Z,64.42
2022-11-18T12:28:31.703Z,64.61
2022-11-18T12:31:18.017Z,64.39
2022-11-18T12:33:53.095Z,64.47
2022-11-18T12:36:39.303Z,64.54
2022-11-18T12:39:25.713Z,64.34
2022-11-18T12:42:11.099Z,64.52
2022-11-18T12:44:39.706Z,64.27
2022-11-18T12:47:09.365Z,64.44
2022-11-18T12:49:36.821Z,64.41
2022-11-18T12:52:36.342Z,64.22
2022-11-18T12:55:13.355Z,64.30
2022-11-18T12:57:41.732Z,64.28
2022-11-18T13:00:19.554Z,64.32
2022-11-18T13:02:55.127Z,64.26
2022-11-18T13:05:32.809Z,64.25
2022-11-18T13:08:13.015Z,64.29
2022-11-18T13:10:45.841Z,64.29
2022-11-18T13:13:31.874Z,64.25
2022-11-18T13:16:37.972Z,64.21
2022-11-18T13:19:06.131Z,64.18
2022-11-18T13:21:50.025Z,64.17
2022-11-18T13:24:20.448Z,64.16
2022-11-18T13:26:53.845Z,63.99
2022-11-18T13:29:40.537Z,63.99
2022-11-18T13:32:25.507Z,63.89
2022-11-18T13:35:07.715Z,63.86
2022-11-18T13:37:35.317Z,64.09
2022-11-18T13:40:03.235Z,63.95
2022-11-18T13:42:32.052Z,63.91
2022-11-18T13:45:02.095Z,63.85
2022-11-18T13:47:35.877Z,63.94
2022-11-18T13:50:14.808Z,63.76
2022-11-18T13:52:47.055Z,63.84
2022-11-18T13:55:34.213Z,63.94
2022-11-18T13:58:20.155Z,63.77
2022-11-18T14:01:05.573Z,63.81
2022-11-18T14:03:51.992Z,63.78
2022-11-18T14:06:27.998Z,63.79
2022-11-18T14:09:28.617Z,63.76
2022-11-18T14:12:12.167Z,63.70
2022-11-18T14:14:42.057Z,63.77
2022-11-18T14:17:27.921Z,63.77
2022-11-18T14:19:59.906Z,63.66
2022-11-18T14:22:30.866Z,63.79
2022-11-18T14:25:15.699Z,63.71
2022-11-18T14:27:44.674Z,63.62
2022-11-18T14:30:31.280Z,63.59
2022-11-18T14:33:17.027Z,63.75
2022-11-18T14:35:59.276Z,63.68
2022-11-18T14:39:11.256Z,63.68
2022-11-18T14:41:51.847Z,63.60
2022-11-18T14:44:21.659Z,63.68
2022-11-18T14:46:57.817Z,63.67
2022-11-18T14:49:27.424Z,63.68
2022-11-18T14:51:55.897Z,63.62
2022-11-18T14:54:27.247Z,63.73
2022-11-18T14:57:02.203Z,63.61
2022-11-18T14:59:29.807Z,63.57
2022-11-18T15:01:58.817Z,63.59
2022-11-18T15:04:26.842Z,63.60
2022-11-18T15:06:54.467Z,63.69
2022-11-18T15:09:22.257Z,63.59
2022-11-18T15:11:49.779Z,63.52
2022-11-18T15:14:17.683Z,63.47
2022-11-18T15:16:45.613Z,63.58
2022-11-18T15:19:16.679Z,63.43
2022-11-18T15:21:45.564Z,63.43
2022-11-18T15:24:13.564Z,63.42
2022-11-18T15:26:43.834Z,63.37
2022-11-18T15:29:25.526Z,63.28
2022-11-18T15:31:53.131Z,63.39
2022-11-18T15:34:21.556Z,63.26
2022-11-18T15:36:49.691Z,63.37
2022-11-18T15:39:17.277Z,63.34
2022-11-18T15:41:44.802Z,63.22
2022-11-18T15:44:12.817Z,63.27
2022-11-18T15:46:40.419Z,63.30
2022-11-18T15:49:13.111Z,63.20
2022-11-18T15:51:41.078Z,63.15
2022-11-18T15:54:08.668Z,63.16
2022-11-18T15:56:37.268Z,63.15
2022-11-18T15:59:07.564Z,63.12
2022-11-18T16:01:41.320Z,63.20
2022-11-18T16:04:11.361Z,62.96
2022-11-18T16:06:39.294Z,63.06
2022-11-18T16:09:07.237Z,62.92
2022-11-18T16:11:50.978Z,63.06
2022-11-18T16:14:20.475Z,62.96
2022-11-18T16:16:49.869Z,62.95
2022-11-18T16:19:19.428Z,62.91
2022-11-18T16:21:49.458Z,63.14
2022-11-18T16:24:21.076Z,63.19
2022-11-18T16:26:49.998Z,63.11
2022-11-18T16:29:18.905Z,63.02
2022-11-18T16:31:52.740Z,63.10
2022-11-18T16:34:28.410Z,63.01
2022-11-18T16:36:59.544Z,63.08
2022-11-18T16:39:28.519Z,63.12
2022-11-18T16:42:03.766Z,63.14
2022-11-18T16:44:36.681Z,63.28
2022-11-18T16:47:12.329Z,63.29
2022-11-18T16:49:41.833Z,63.16
2022-11-18T16:52:09.351Z,63.04
2022-11-18T16:54:42.961Z,63.15
2022-11-18T16:57:13.178Z,63.11
2022-11-18T16:59:41.034Z,63.11
2022-11-18T17:02:12.698Z,63.11
2022-11-18T17:04:40.581Z,62.93
2022-11-18T17:07:08.331Z,62.93
2022-11-18T17:09:36.483Z,62.92
2022-11-18T17:12:04.403Z,62.89
2022-11-18T17:14:31.979Z,62.98
2022-11-18T17:16:59.535Z,62.93
2022-11-18T17:19:27.100Z,62.93
2022-11-18T17:21:54.636Z,62.95
2022-11-18T17:24:23.792Z,62.77
2022-11-18T17:26:52.305Z,62.83
2022-11-18T17:29:20.528Z,62.82
2022-11-18T17:31:48.602Z,62.97
2022-11-18T17:34:17.014Z,62.89
2022-11-18T17:36:45.096Z,62.80
2022-11-18T17:39:13.648Z,62.86
2022-11-18T17:41:57.370Z,62.92
2022-11-18T17:44:25.250Z,62.94
2022-11-18T17:46:52.859Z,62.92
2022-11-18T17:49:23.236Z,62.85
2022-11-18T17:51:51.441Z,62.92
2022-11-18T17:54:20.295Z,63.04
2022-11-18T17:56:52.074Z,62.89
2022-11-18T17:59:20.797Z,62.98
2022-11-18T18:01:52.863Z,62.93
2022-11-18T18:04:23.873Z,62.95
2022-11-18T18:06:52.929Z,62.90
2022-11-18T18:09:28.471Z,62.98
2022-11-18T18:11:59.632Z,62.92
2022-11-18T18:14:27.129Z,62.98
2022-11-18T18:16:54.668Z,63.00
2022-11-18T18:19:23.754Z,62.93
2022-11-18T18:21:53.032Z,62.85
2022-11-18T18:24:21.157Z,62.82
2022-11-18T18:26:49.145Z,62.81
2022-11-18T18:29:16.695Z,62.86
2022-11-18T18:31:44.213Z,62.93
2022-11-18T18:34:11.860Z,62.93
2022-11-18T18:36:39.388Z,62.80
2022-11-18T18:39:06.952Z,62.66
2022-11-18T18:41:35.009Z,62.81
2022-11-18T18:44:02.548Z,62.84
2022-11-18T18:46:33.592Z,62.75
2022-11-18T18:49:20.512Z,62.72
2022-11-18T18:51:55.458Z,62.75
2022-11-18T18:54:23.238Z,62.70
2022-11-18T18:56:50.893Z,62.68
2022-11-18T18:59:18.392Z,62.72
2022-11-18T19:01:46.019Z,62.85
2022-11-18T19:04:14.139Z,62.75
2022-11-18T19:07:01.124Z,62.81
2022-11-18T19:09:28.848Z,62.75
2022-11-18T19:12:12.705Z,62.78
2022-11-18T19:14:40.504Z,62.88
2022-11-18T19:17:11.755Z,62.91
2022-11-18T19:19:57.877Z,62.92
2022-11-18T19:22:25.489Z,62.80
2022-11-18T19:24:53.861Z,62.75
2022-11-18T19:27:22.375Z,62.78
2022-11-18T19:29:49.960Z,62.78
2022-11-18T19:32:17.602Z,62.75
2022-11-18T19:34:45.151Z,62.68
2022-11-18T19:37:12.664Z,62.73
2022-11-18T19:39:40.164Z,62.81
2022-11-18T19:42:07.796Z,62.87
2022-11-18T19:44:35.339Z,62.87
2022-11-18T19:47:02.840Z,62.89
2022-11-18T19:49:30.510Z,62.87
2022-11-18T19:51:58.015Z,62.95
2022-11-18T19:54:25.531Z,62.91
2022-11-18T19:56:53.156Z,62.96
2022-11-18T19:59:21.161Z,62.97
2022-11-18T20:01:49.078Z,62.99
2022-11-18T20:04:16.732Z,63.10
2022-11-18T20:06:45.571Z,63.02
2022-11-18T20:09:13.275Z,63.20
2022-11-18T20:11:43.129Z,63.06
2022-11-18T20:14:11.746Z,63.04
2022-11-18T20:16:40.753Z,63.09
2022-11-18T20:19:13.295Z,63.13
2022-11-18T20:21:43.323Z,63.19
2022-11-18T20:24:15.947Z,63.12
2022-11-18T20:26:44.320Z,63.09
2022-11-18T20:29:12.459Z,63.18
2022-11-18T20:31:40.612Z,63.13
2022-11-18T20:34:14.393Z,63.19
2022-11-18T20:36:42.960Z,63.18
2022-11-18T20:39:15.758Z,63.25
2022-11-18T20:42:04.731Z,63.26
2022-11-18T20:44:32.328Z,63.17
2022-11-18T20:47:00.251Z,63.20
2022-11-18T20:49:27.812Z,63.10
2022-11-18T20:51:55.351Z,63.17
2022-11-18T20:54:22.872Z,63.20
2022-11-18T20:56:50.387Z,63.17
2022-11-18T20:59:18.167Z,63.35
2022-11-18T21:01:45.855Z,63.19
2022-11-18T21:04:13.420Z,63.27
2022-11-18T21:06:41.003Z,63.25
2022-11-18T21:09:09.299Z,63.37
2022-11-18T21:11:37.438Z,63.41
2022-11-18T21:14:25.339Z,63.40
2022-11-18T21:17:00.388Z,63.32
2022-11-18T21:19:29.039Z,63.44
2022-11-18T21:21:56.635Z,63.47
2022-11-18T21:24:28.585Z,63.51
2022-11-18T21:26:57.846Z,63.61
2022-11-18T21:29:28.100Z,63.74
2022-11-18T21:31:57.894Z,63.67
2022-11-18T21:34:25.446Z,63.70
2022-11-18T21:36:55.225Z,63.75
2022-11-18T21:39:24.874Z,63.81
2022-11-18T21:41:56.368Z,63.87
2022-11-18T21:44:28.358Z,63.87
2022-11-18T21:46:57.461Z,63.91
2022-11-18T21:49:25.092Z,63.92
2022-11-18T21:51:52.618Z,64.09
2022-11-18T21:54:20.139Z,64.23
2022-11-18T21:56:47.702Z,64.26
2022-11-18T21:59:15.281Z,64.30
2022-11-18T22:01:42.945Z,64.32
2022-11-18T22:04:30.429Z,64.17
2022-11-18T22:06:57.996Z,64.23
2022-11-18T22:09:25.620Z,64.15
2022-11-18T22:11:53.135Z,64.11
2022-11-18T22:14:20.733Z,64.25
2022-11-18T22:16:51.276Z,64.19
2022-11-18T22:19:18.813Z,64.24
2022-11-18T22:21:46.328Z,64.36
2022-11-18T22:24:13.832Z,64.44
2022-11-18T22:26:41.345Z,64.35
2022-11-18T22:29:08.899Z,64.32
2022-11-18T22:31:36.548Z,64.45
2022-11-18T22:34:05.097Z,64.48
2022-11-18T22:36:32.970Z,64.53
2022-11-18T22:39:00.586Z,64.40
2022-11-18T22:41:45.288Z,64.43
2022-11-18T22:44:14.879Z,64.52
2022-11-18T22:46:46.429Z,64.47
2022-11-18T22:49:14.022Z,64.28
2022-11-18T22:51:41.567Z,64.35
2022-11-18T22:54:37.037Z,64.41
2022-11-18T22:56:57.046Z,64.37
2022-11-18T22:59:24.921Z,64.36
2022-11-18T23:01:53.426Z,64.41
2022-11-18T23:04:21.375Z,64.25
2022-11-18T23:06:49.806Z,64.45
2022-11-18T23:09:18.014Z,64.42
2022-11-18T23:12:01.866Z,64.41
2022-11-18T23:14:29.379Z,64.47
2022-11-18T23:16:56.950Z,64.44
2022-11-18T23:19:24.465Z,64.49
2022-11-18T23:21:52.012Z,64.49
2022-11-18T23:24:19.888Z,64.49
2022-11-18T23:26:47.821Z,64.46
2022-11-18T23:29:16.324Z,64.49
2022-11-18T23:31:45.168Z,64.55
2022-11-18T23:34:14.959Z,64.55
2022-11-18T23:36:43.382Z,64.52
2022-11-18T23:39:11.877Z,64.57
2022-11-18T23:41:40.531Z,64.55
2022-11-18T23:44:08.610Z,64.48
2022-11-18T23:46:36.357Z,64.43
2022-11-18T23:49:08.941Z,64.60
2022-11-18T23:51:36.471Z,64.49
2022-11-18T23:54:04.078Z,64.44
2022-11-18T23:56:37.517Z,64.49
2022-11-18T23:59:06.685Z,64.43
